createdAt,value
2023-04-14T00:01:41.600Z,8.17
2023-04-14T00:04:08.732Z,8.19
2023-04-14T00:07:00.309Z,8.13
2023-04-14T00:09:47.893Z,8.21
2023-04-14T00:12:42.791Z,8.25
2023-04-14T00:15:32.750Z,8.21
2023-04-14T00:18:17.782Z,8.17
2023-04-14T00:21:04.124Z,8.11
2023-04-14T00:23:50.476Z,8.05
2023-04-14T00:26:17.630Z,7.98
2023-04-14T00:28:44.546Z,8.01
2023-04-14T00:31:11.732Z,8.02
2023-04-14T00:33:38.624Z,8.01
2023-04-14T00:36:05.862Z,7.96
2023-04-14T00:38:32.909Z,7.97
2023-04-14T00:40:59.880Z,8.00
2023-04-14T00:43:26.777Z,8.07
2023-04-14T00:45:53.857Z,8.11
2023-04-14T00:48:20.981Z,8.12
2023-04-14T00:50:48.194Z,8.07
2023-04-14T00:53:15.340Z,8.06
2023-04-14T00:55:42.887Z,7.91
2023-04-14T00:58:11.291Z,7.86
2023-04-14T01:00:38.441Z,7.78
2023-04-14T01:03:06.883Z,7.75
2023-04-14T01:05:34.612Z,7.78
2023-04-14T01:08:14.138Z,7.46
2023-04-14T01:11:17.674Z,7.76
2023-04-14T01:14:22.281Z,7.77
2023-04-14T01:17:35.156Z,7.86
2023-04-14T01:20:31.542Z,7.86
2023-04-14T01:23:17.613Z,7.80
2023-04-14T01:26:12.307Z,7.73
2023-04-14T01:29:09.998Z,7.72
2023-04-14T01:31:55.562Z,7.73
2023-04-14T01:34:38.043Z,7.72
2023-04-14T01:37:12.930Z,7.76
2023-04-14T01:39:47.335Z,7.71
2023-04-14T01:42:23.661Z,7.68
2023-04-14T01:44:56.971Z,7.69
2023-04-14T01:47:27.445Z,7.60
2023-04-14T01:49:56.704Z,7.61
2023-04-14T01:52:24.934Z,7.55
2023-04-14T01:54:53.776Z,7.49
2023-04-14T01:57:23.186Z,7.54
2023-04-14T01:59:53.894Z,7.53
2023-04-14T02:02:23.410Z,7.53
2023-04-14T02:04:52.307Z,7.53
2023-04-14T02:07:22.178Z,7.40
2023-04-14T02:09:51.190Z,7.52
2023-04-14T02:12:19.919Z,7.43
2023-04-14T02:14:48.437Z,7.38
2023-04-14T02:17:17.574Z,7.50
2023-04-14T02:19:45.571Z,7.51
2023-04-14T02:22:12.765Z,7.48
2023-04-14T02:24:40.160Z,7.49
2023-04-14T02:27:23.064Z,7.48
2023-04-14T02:29:55.070Z,7.51
2023-04-14T02:32:25.277Z,7.51
2023-04-14T02:35:05.076Z,7.52
2023-04-14T02:37:41.917Z,7.48
2023-04-14T02:40:15.700Z,7.52
2023-04-14T02:42:48.661Z,7.50
2023-04-14T02:45:22.765Z,7.40
2023-04-14T02:47:54.915Z,7.53
2023-04-14T02:50:23.139Z,7.58
2023-04-14T02:52:52.677Z,7.56
2023-04-14T02:55:21.116Z,7.51
2023-04-14T02:57:50.279Z,7.48
2023-04-14T03:00:17.918Z,7.43
2023-04-14T03:02:47.421Z,7.42
2023-04-14T03:05:14.776Z,7.49
2023-04-14T03:07:44.322Z,7.44
2023-04-14T03:10:12.436Z,7.38
2023-04-14T03:12:42.553Z,7.39
2023-04-14T03:15:10.612Z,7.09
2023-04-14T03:17:38.340Z,7.52
2023-04-14T03:20:06.018Z,7.49
2023-04-14T03:22:41.004Z,7.52
2023-04-14T03:25:09.365Z,7.50
2023-04-14T03:27:37.430Z,7.51
2023-04-14T03:30:07.459Z,7.56
2023-04-14T03:32:42.117Z,7.57
2023-04-14T03:35:10.257Z,7.59
2023-04-14T03:37:39.972Z,7.55
2023-04-14T03:40:11.450Z,7.56
2023-04-14T03:42:40.988Z,7.61
2023-04-14T03:45:08.627Z,7.59
2023-04-14T03:47:36.218Z,7.58
2023-04-14T03:50:06.220Z,7.58
2023-04-14T03:52:35.744Z,7.67
2023-04-14T03:55:06.739Z,7.70
2023-04-14T03:57:35.411Z,7.70
2023-04-14T04:00:05.406Z,7.73
2023-04-14T04:02:32.954Z,7.72
2023-04-14T04:05:01.697Z,7.76
2023-04-14T04:07:31.334Z,7.70
2023-04-14T04:09:59.368Z,7.70
2023-04-14T04:12:27.783Z,7.77
2023-04-14T04:14:54.672Z,7.76
2023-04-14T04:17:24.320Z,7.70
2023-04-14T04:19:53.922Z,7.54
2023-04-14T04:22:24.183Z,7.60
2023-04-14T04:24:52.422Z,7.69
2023-04-14T04:27:27.815Z,7.77
2023-04-14T04:29:56.229Z,7.82
2023-04-14T04:32:23.881Z,7.83
2023-04-14T04:34:51.337Z,7.89
2023-04-14T04:37:19.787Z,7.93
2023-04-14T04:39:48.792Z,7.94
2023-04-14T04:42:16.684Z,7.97
2023-04-14T04:44:43.661Z,8.00
2023-04-14T04:47:12.334Z,8.06
2023-04-14T04:49:39.237Z,8.14
2023-04-14T04:52:06.339Z,8.19
2023-04-14T04:54:33.396Z,8.22
2023-04-14T04:57:00.287Z,8.25
2023-04-14T04:59:27.608Z,8.21
2023-04-14T05:01:54.610Z,8.18
2023-04-14T05:04:21.834Z,8.28
2023-04-14T05:06:48.843Z,8.24
2023-04-14T05:09:15.755Z,8.01
2023-04-14T05:11:42.698Z,8.24
2023-04-14T05:14:09.596Z,8.17
2023-04-14T05:16:36.559Z,8.28
2023-04-14T05:19:04.153Z,8.38
2023-04-14T05:21:31.137Z,8.39
2023-04-14T05:23:58.013Z,8.45
2023-04-14T05:28:54.693Z,8.35
2023-04-14T05:31:21.656Z,8.43
2023-04-14T05:33:48.727Z,8.40
2023-04-14T05:36:15.613Z,8.36
2023-04-14T05:38:42.609Z,8.38
2023-04-14T05:41:09.884Z,8.28
2023-04-14T05:43:37.390Z,8.42
2023-04-14T05:46:04.717Z,8.48
2023-04-14T05:48:33.697Z,8.48
2023-04-14T05:51:00.972Z,8.58
2023-04-14T05:53:28.058Z,8.55
2023-04-14T05:55:55.026Z,8.56
2023-04-14T05:58:21.875Z,8.60
2023-04-14T06:00:48.887Z,8.67
2023-04-14T06:03:16.994Z,8.65
2023-04-14T06:05:44.239Z,8.77
2023-04-14T06:08:11.229Z,8.84
2023-04-14T06:10:38.132Z,8.83
2023-04-14T06:13:05.099Z,9.01
2023-04-14T06:15:32.180Z,8.89
2023-04-14T06:17:59.130Z,8.92
2023-04-14T06:20:26.093Z,8.98
2023-04-14T06:22:53.242Z,9.19
2023-04-14T06:25:20.155Z,9.60
2023-04-14T06:27:47.451Z,9.46
2023-04-14T06:30:17.121Z,9.73
2023-04-14T06:32:44.293Z,9.74
2023-04-14T06:35:18.999Z,9.84
2023-04-14T06:37:53.007Z,9.97
2023-04-14T06:40:19.935Z,10.18
2023-04-14T06:42:46.817Z,10.39
2023-04-14T06:45:13.938Z,10.45
2023-04-14T06:47:41.069Z,10.82
2023-04-14T06:50:08.327Z,11.00
2023-04-14T06:52:35.206Z,11.24
2023-04-14T06:55:02.284Z,11.19
2023-04-14T06:57:29.179Z,11.33
2023-04-14T06:59:56.777Z,11.27
2023-04-14T07:02:23.775Z,11.33
2023-04-14T07:04:50.796Z,12.05
2023-04-14T07:07:18.267Z,12.02
2023-04-14T07:09:45.221Z,11.97
2023-04-14T07:12:16.131Z,11.96
2023-04-14T07:14:43.363Z,12.01
2023-04-14T07:17:10.222Z,12.21
2023-04-14T07:19:37.121Z,12.22
2023-04-14T07:22:04.126Z,12.37
2023-04-14T07:24:31.057Z,12.16
2023-04-14T07:26:58.075Z,11.78
2023-04-14T07:29:25.050Z,11.86
2023-04-14T07:31:52.005Z,11.70
2023-04-14T07:34:19.965Z,11.86
2023-04-14T07:36:47.152Z,11.78
2023-04-14T07:39:13.997Z,11.54
2023-04-14T07:41:41.486Z,11.53
2023-04-14T07:44:08.411Z,11.66
2023-04-14T07:46:35.611Z,11.47
2023-04-14T07:49:02.557Z,11.54
2023-04-14T07:51:29.472Z,11.55
2023-04-14T07:53:56.413Z,11.64
2023-04-14T07:56:23.458Z,11.68
2023-04-14T07:58:50.456Z,11.67
2023-04-14T08:01:17.783Z,11.72
2023-04-14T08:03:45.673Z,11.89
2023-04-14T08:06:13.060Z,11.85
2023-04-14T08:08:40.392Z,11.84
2023-04-14T08:11:07.345Z,11.90
2023-04-14T08:13:34.372Z,11.98
2023-04-14T08:16:01.429Z,12.05
2023-04-14T08:18:28.930Z,12.18
2023-04-14T08:20:56.934Z,12.11
2023-04-14T08:23:23.901Z,12.11
2023-04-14T08:25:50.848Z,12.14
2023-04-14T08:28:17.710Z,12.20
2023-04-14T08:30:44.783Z,12.23
2023-04-14T08:33:11.919Z,11.91
2023-04-14T08:35:42.669Z,12.17
2023-04-14T08:38:11.438Z,12.05
2023-04-14T08:40:43.492Z,12.23
2023-04-14T08:43:13.162Z,12.30
2023-04-14T08:45:42.228Z,12.46
2023-04-14T08:48:12.090Z,12.61
2023-04-14T08:50:48.849Z,12.76
2023-04-14T08:53:19.694Z,12.94
2023-04-14T08:55:47.520Z,13.11
2023-04-14T08:58:14.699Z,13.26
2023-04-14T09:00:42.025Z,13.54
2023-04-14T09:03:11.814Z,13.83
2023-04-14T09:05:39.238Z,13.91
2023-04-14T09:08:07.581Z,14.07
2023-04-14T09:10:35.954Z,14.28
2023-04-14T09:13:04.869Z,14.66
2023-04-14T09:15:31.813Z,15.07
2023-04-14T09:17:58.964Z,15.40
2023-04-14T09:20:34.966Z,15.82
2023-04-14T09:23:08.986Z,15.77
2023-04-14T09:25:36.811Z,16.00
2023-04-14T09:28:03.892Z,16.11
2023-04-14T09:30:32.134Z,16.04
2023-04-14T09:32:59.202Z,16.12
2023-04-14T09:35:45.769Z,15.93
2023-04-14T09:38:12.718Z,15.94
2023-04-14T09:40:43.102Z,15.63
2023-04-14T09:43:24.373Z,15.74
2023-04-14T09:45:51.450Z,15.61
2023-04-14T09:48:18.686Z,15.65
2023-04-14T09:51:01.925Z,15.66
2023-04-14T09:53:33.814Z,15.55
2023-04-14T09:56:03.527Z,15.45
2023-04-14T09:58:35.721Z,15.32
2023-04-14T10:01:13.179Z,15.37
2023-04-14T10:03:43.484Z,15.44
2023-04-14T10:06:19.558Z,15.70
2023-04-14T10:08:51.789Z,15.77
2023-04-14T10:11:29.893Z,15.91
2023-04-14T10:14:04.312Z,15.74
2023-04-14T10:16:31.803Z,15.60
2023-04-14T10:18:59.765Z,15.57
2023-04-14T10:21:28.854Z,15.43
2023-04-14T10:23:58.036Z,15.49
2023-04-14T10:26:25.631Z,15.50
2023-04-14T10:28:55.164Z,15.62
2023-04-14T10:31:39.562Z,15.68
2023-04-14T10:34:11.681Z,15.45
2023-04-14T10:36:39.037Z,15.49
2023-04-14T10:39:07.565Z,15.68
2023-04-14T10:41:38.316Z,15.67
2023-04-14T10:44:05.602Z,15.53
2023-04-14T10:46:44.905Z,15.45
2023-04-14T10:49:13.424Z,15.29
2023-04-14T10:51:40.855Z,15.28
2023-04-14T10:54:19.477Z,14.96
2023-04-14T10:57:10.977Z,15.22
2023-04-14T10:59:41.736Z,14.95
2023-04-14T11:02:31.633Z,14.73
2023-04-14T11:04:59.566Z,14.59
2023-04-14T11:07:29.131Z,14.54
2023-04-14T11:10:18.130Z,14.73
2023-04-14T11:12:46.703Z,14.78
2023-04-14T11:15:14.494Z,15.00
2023-04-14T11:17:43.481Z,15.37
2023-04-14T11:20:21.360Z,15.54
2023-04-14T11:22:52.928Z,15.68
2023-04-14T11:25:24.552Z,15.71
2023-04-14T11:27:52.681Z,15.80
2023-04-14T11:30:21.568Z,15.80
2023-04-14T11:32:53.872Z,16.25
2023-04-14T11:35:24.499Z,16.16
2023-04-14T11:37:56.176Z,16.10
2023-04-14T11:40:26.759Z,16.26
2023-04-14T11:42:56.504Z,16.13
2023-04-14T11:45:31.148Z,16.27
2023-04-14T11:48:05.877Z,16.59
2023-04-14T11:50:39.203Z,16.34
2023-04-14T11:53:11.128Z,16.33
2023-04-14T11:55:43.303Z,16.38
2023-04-14T11:58:10.667Z,16.50
2023-04-14T12:00:37.920Z,16.42
2023-04-14T12:03:06.380Z,16.45
2023-04-14T12:05:35.735Z,16.48
2023-04-14T12:08:12.211Z,16.55
2023-04-14T12:10:43.723Z,16.56
2023-04-14T12:13:12.242Z,16.75
2023-04-14T12:15:41.276Z,16.82
2023-04-14T12:18:10.637Z,16.74
2023-04-14T12:20:51.659Z,16.71
2023-04-14T12:23:18.590Z,16.82
2023-04-14T12:25:46.381Z,16.89
2023-04-14T12:28:41.924Z,16.97
2023-04-14T12:31:09.775Z,16.99
2023-04-14T12:33:36.869Z,17.18
2023-04-14T12:36:14.260Z,16.92
2023-04-14T12:38:41.826Z,16.84
2023-04-14T12:41:08.856Z,16.94
2023-04-14T12:44:37.691Z,16.93
2023-04-14T12:47:04.830Z,16.75
2023-04-14T12:49:39.042Z,16.52
2023-04-14T12:52:08.415Z,16.44
2023-04-14T12:54:54.077Z,16.44
2023-04-14T12:57:26.404Z,16.52
2023-04-14T12:59:53.353Z,16.60
2023-04-14T13:02:20.461Z,16.40
2023-04-14T13:04:47.476Z,16.50
2023-04-14T13:07:14.343Z,16.57
2023-04-14T13:09:42.831Z,16.37
2023-04-14T13:12:10.133Z,16.58
2023-04-14T13:14:37.051Z,16.52
2023-04-14T13:17:06.414Z,16.59
2023-04-14T13:19:33.316Z,16.72
2023-04-14T13:22:00.229Z,16.76
2023-04-14T13:24:27.138Z,16.40
2023-04-14T13:26:54.052Z,16.32
2023-04-14T13:29:21.083Z,16.29
2023-04-14T13:31:47.960Z,16.31
2023-04-14T13:34:14.964Z,16.39
2023-04-14T13:36:41.872Z,16.34
2023-04-14T13:39:08.849Z,16.04
2023-04-14T13:41:35.789Z,16.04
2023-04-14T13:44:04.489Z,15.84
2023-04-14T13:46:38.511Z,15.99
2023-04-14T13:49:07.721Z,15.88
2023-04-14T13:51:34.793Z,15.91
2023-04-14T13:54:01.781Z,15.68
2023-04-14T13:56:28.750Z,15.87
2023-04-14T13:58:55.786Z,15.84
2023-04-14T14:01:23.047Z,15.90
2023-04-14T14:03:50.899Z,15.85
2023-04-14T14:06:19.218Z,15.90
2023-04-14T14:08:46.418Z,15.89
2023-04-14T14:11:14.542Z,15.88
2023-04-14T14:13:41.470Z,15.87
2023-04-14T14:16:09.537Z,15.98
2023-04-14T14:18:37.558Z,16.00
2023-04-14T14:21:05.085Z,15.90
2023-04-14T14:23:32.075Z,15.76
2023-04-14T14:25:58.940Z,15.77
2023-04-14T14:28:26.425Z,15.76
2023-04-14T14:30:53.332Z,15.71
2023-04-14T14:33:20.258Z,15.66
2023-04-14T14:35:47.308Z,15.67
2023-04-14T14:38:14.533Z,15.68
2023-04-14T14:40:41.394Z,15.62
2023-04-14T14:43:08.351Z,15.52
2023-04-14T14:45:35.207Z,15.47
2023-04-14T14:48:02.431Z,15.51
2023-04-14T14:50:29.317Z,15.41
2023-04-14T14:52:57.138Z,15.36
2023-04-14T14:55:24.049Z,15.19
2023-04-14T14:57:51.550Z,15.17
2023-04-14T15:00:19.184Z,15.24
2023-04-14T15:02:46.245Z,15.25
2023-04-14T15:05:13.280Z,15.32
2023-04-14T15:07:40.158Z,15.30
2023-04-14T15:10:07.562Z,15.21
2023-04-14T15:12:34.532Z,15.21
2023-04-14T15:15:01.480Z,15.14
2023-04-14T15:17:28.736Z,15.11
2023-04-14T15:19:55.896Z,15.03
2023-04-14T15:22:23.002Z,15.14
2023-04-14T15:24:49.924Z,15.14
2023-04-14T15:27:16.790Z,15.10
2023-04-14T15:29:43.680Z,15.09
2023-04-14T15:32:10.764Z,14.66
2023-04-14T15:34:37.706Z,15.00
2023-04-14T15:37:04.632Z,14.98
2023-04-14T15:39:31.734Z,14.91
2023-04-14T15:41:58.757Z,14.91
2023-04-14T15:44:26.403Z,14.88
2023-04-14T15:47:26.934Z,14.93
2023-04-14T15:50:07.429Z,14.88
2023-04-14T15:52:37.879Z,14.82
2023-04-14T15:55:05.172Z,14.71
2023-04-14T15:57:32.197Z,14.74
2023-04-14T15:59:59.926Z,14.69
2023-04-14T16:02:28.644Z,14.65
2023-04-14T16:04:55.730Z,14.61
2023-04-14T16:07:22.593Z,14.66
2023-04-14T16:09:49.505Z,14.66
2023-04-14T16:12:16.427Z,14.62
2023-04-14T16:14:43.324Z,14.65
2023-04-14T16:17:10.211Z,14.56
2023-04-14T16:19:37.101Z,14.42
2023-04-14T16:22:04.097Z,14.42
2023-04-14T16:24:31.020Z,14.32
2023-04-14T16:26:58.253Z,14.31
2023-04-14T16:29:25.158Z,14.26
2023-04-14T16:31:52.132Z,14.16
2023-04-14T16:34:20.598Z,14.11
2023-04-14T16:36:47.583Z,13.92
2023-04-14T16:39:14.825Z,13.96
2023-04-14T16:41:42.173Z,13.85
2023-04-14T16:44:09.198Z,13.83
2023-04-14T16:46:36.207Z,13.72
2023-04-14T16:49:03.506Z,13.59
2023-04-14T16:51:30.661Z,13.55
2023-04-14T16:53:57.503Z,13.49
2023-04-14T16:56:24.377Z,13.42
2023-04-14T16:58:51.233Z,13.40
2023-04-14T17:01:18.257Z,13.38
2023-04-14T17:03:45.571Z,13.41
2023-04-14T17:06:12.630Z,13.40
2023-04-14T17:08:39.853Z,13.41
2023-04-14T17:11:06.781Z,13.24
2023-04-14T17:13:33.687Z,13.14
2023-04-14T17:16:08.311Z,13.10
2023-04-14T17:18:36.728Z,13.02
2023-04-14T17:21:04.637Z,12.98
2023-04-14T17:23:32.231Z,12.83
2023-04-14T17:26:00.031Z,12.72
2023-04-14T17:28:29.849Z,12.64
2023-04-14T17:30:56.995Z,12.57
2023-04-14T17:33:27.590Z,12.50
2023-04-14T17:35:55.234Z,12.39
2023-04-14T17:38:22.202Z,12.32
2023-04-14T17:40:50.852Z,12.27
2023-04-14T17:43:17.746Z,12.24
2023-04-14T17:45:46.276Z,12.26
2023-04-14T17:48:13.182Z,12.13
2023-04-14T17:50:40.036Z,12.10
2023-04-14T17:53:07.200Z,12.12
2023-04-14T17:55:36.873Z,12.10
2023-04-14T17:58:03.972Z,12.17
2023-04-14T18:00:32.764Z,12.12
2023-04-14T18:02:59.819Z,12.09
2023-04-14T18:05:26.717Z,12.08
2023-04-14T18:07:54.496Z,12.17
2023-04-14T18:10:21.926Z,12.24
2023-04-14T18:12:49.467Z,12.25
2023-04-14T18:15:17.171Z,12.36
2023-04-14T18:17:45.663Z,12.38
2023-04-14T18:20:14.790Z,12.23
2023-04-14T18:22:41.774Z,12.30
2023-04-14T18:25:09.845Z,12.29
2023-04-14T18:30:08.493Z,12.22
2023-04-14T18:32:35.434Z,12.17
2023-04-14T18:35:02.994Z,12.06
2023-04-14T18:37:31.329Z,11.95
2023-04-14T18:39:58.617Z,11.89
2023-04-14T18:42:25.686Z,11.18
2023-04-14T18:44:54.115Z,11.85
2023-04-14T18:47:21.158Z,11.82
2023-04-14T18:49:48.144Z,11.83
2023-04-14T18:52:15.218Z,11.87
2023-04-14T18:54:42.051Z,11.88
2023-04-14T18:57:09.536Z,11.98
2023-04-14T18:59:36.495Z,11.97
2023-04-14T19:02:04.717Z,12.02
2023-04-14T19:04:31.898Z,12.02
2023-04-14T19:06:58.913Z,12.05
2023-04-14T19:09:27.715Z,12.01
2023-04-14T19:11:54.632Z,12.02
2023-04-14T19:14:21.867Z,11.90
2023-04-14T19:16:48.792Z,11.99
2023-04-14T19:19:15.918Z,11.95
2023-04-14T19:21:42.812Z,11.85
2023-04-14T19:24:09.693Z,11.88
2023-04-14T19:26:41.050Z,11.89
2023-04-14T19:29:08.022Z,11.89
2023-04-14T19:31:34.973Z,11.88
2023-04-14T19:34:01.921Z,11.86
2023-04-14T19:36:29.563Z,11.89
2023-04-14T19:38:57.383Z,11.82
2023-04-14T19:41:24.490Z,11.85
2023-04-14T19:43:52.495Z,11.82
2023-04-14T19:46:19.670Z,11.83
2023-04-14T19:48:47.029Z,11.81
2023-04-14T19:51:14.144Z,11.76
2023-04-14T19:53:41.501Z,11.74
2023-04-14T19:56:08.973Z,11.76
2023-04-14T19:58:36.620Z,11.74
2023-04-14T20:01:03.667Z,11.72
2023-04-14T20:03:33.099Z,11.73
2023-04-14T20:06:02.174Z,11.68
2023-04-14T20:08:29.302Z,11.68
2023-04-14T20:10:56.419Z,11.63
2023-04-14T20:13:24.822Z,11.64
2023-04-14T20:15:54.250Z,11.63
2023-04-14T20:18:22.859Z,11.63
2023-04-14T20:20:50.443Z,11.60
2023-04-14T20:23:17.416Z,11.57
2023-04-14T20:25:45.809Z,11.47
2023-04-14T20:28:14.105Z,11.47
2023-04-14T20:30:41.063Z,11.44
2023-04-14T20:33:07.945Z,11.42
2023-04-14T20:35:37.064Z,11.39
2023-04-14T20:38:04.722Z,11.40
2023-04-14T20:40:31.606Z,11.30
2023-04-14T20:42:59.422Z,11.25
2023-04-14T20:45:26.450Z,11.19
2023-04-14T20:47:53.502Z,11.15
2023-04-14T20:50:20.426Z,11.13
2023-04-14T20:52:47.332Z,11.14
2023-04-14T20:55:14.352Z,11.13
2023-04-14T20:57:42.335Z,11.17
2023-04-14T21:00:12.883Z,11.21
2023-04-14T21:02:39.868Z,11.15
2023-04-14T21:05:07.276Z,11.17
2023-04-14T21:07:35.765Z,11.19
2023-04-14T21:10:04.351Z,11.16
2023-04-14T21:12:35.416Z,11.13
2023-04-14T21:15:40.896Z,11.13
2023-04-14T21:17:52.990Z,11.06
2023-04-14T21:20:20.270Z,11.09
2023-04-14T21:22:47.205Z,11.05
2023-04-14T21:25:14.343Z,11.05
2023-04-14T21:27:41.806Z,11.02
2023-04-14T21:30:11.671Z,11.01
2023-04-14T21:32:40.145Z,10.97
2023-04-14T21:35:08.816Z,10.96
2023-04-14T21:37:35.864Z,10.95
2023-04-14T21:40:06.549Z,10.96
2023-04-14T21:42:33.517Z,10.98
2023-04-14T21:45:01.237Z,11.01
2023-04-14T21:47:28.190Z,11.06
2023-04-14T21:49:55.123Z,11.03
2023-04-14T21:52:22.352Z,11.07
2023-04-14T21:54:50.433Z,11.08
2023-04-14T21:57:17.458Z,11.16
2023-04-14T22:00:08.019Z,11.12
2023-04-14T22:02:35.093Z,11.00
2023-04-14T22:05:02.216Z,10.89
2023-04-14T22:07:29.812Z,10.90
2023-04-14T22:09:56.662Z,10.88
2023-04-14T22:12:24.968Z,10.87
2023-04-14T22:14:51.869Z,10.79
2023-04-14T22:17:18.822Z,10.74
2023-04-14T22:19:46.411Z,10.73
2023-04-14T22:22:13.311Z,10.70
2023-04-14T22:24:40.150Z,10.64
2023-04-14T22:27:08.202Z,10.64
2023-04-14T22:29:35.285Z,10.63
2023-04-14T22:32:02.720Z,10.57
2023-04-14T22:34:29.625Z,10.52
2023-04-14T22:36:58.187Z,10.48
2023-04-14T22:39:25.228Z,10.42
2023-04-14T22:41:52.106Z,10.38
2023-04-14T22:44:19.406Z,10.36
2023-04-14T22:46:46.420Z,10.28
2023-04-14T22:49:13.340Z,10.23
2023-04-14T22:51:40.233Z,10.27
2023-04-14T22:54:07.607Z,10.18
2023-04-14T22:56:34.627Z,10.24
2023-04-14T22:59:02.616Z,10.26
2023-04-14T23:01:29.983Z,10.23
2023-04-14T23:03:56.975Z,10.17
2023-04-14T23:06:24.418Z,10.20
2023-04-14T23:08:52.396Z,10.19
2023-04-14T23:11:22.242Z,10.20
2023-04-14T23:13:50.152Z,10.24
2023-04-14T23:16:20.312Z,10.12
2023-04-14T23:18:52.574Z,10.05
2023-04-14T23:21:22.527Z,10.01
2023-04-14T23:23:52.801Z,9.86
2023-04-14T23:26:22.052Z,9.89
2023-04-14T23:28:49.199Z,9.91
2023-04-14T23:31:17.628Z,9.87
2023-04-14T23:33:45.583Z,9.83
2023-04-14T23:36:13.685Z,9.61
2023-04-14T23:38:41.372Z,9.55
2023-04-14T23:41:08.410Z,9.42
2023-04-14T23:43:35.334Z,9.43
2023-04-14T23:46:02.267Z,9.33
2023-04-14T23:48:29.168Z,9.34
2023-04-14T23:50:59.663Z,9.26
2023-04-14T23:53:28.375Z,9.27
2023-04-14T23:55:55.369Z,9.28
2023-04-14T23:58:26.724Z,9.29
